sensor_id;sensor_type;location;lat;lon;timestamp;temperature;humidity
1383;DHT22;685;47.196;11.880;2022-10-03T00:00:15;12.00;99.90
1383;DHT22;685;47.196;11.880;2022-10-03T00:06:08;11.80;99.90
1383;DHT22;685;47.196;11.880;2022-10-03T00:08:51;11.80;99.90
1383;DHT22;685;47.196;11.880;2022-10-03T00:11:31;11.90;99.90
1383;DHT22;685;47.196;11.880;2022-10-03T00:14:03;11.90;99.90
1383;DHT22;685;47.196;11.880;2022-10-03T00:16:42;11.90;99.90
1383;DHT22;685;47.196;11.880;2022-10-03T00:19:21;11.90;99.90
1383;DHT22;685;47.196;11.880;2022-10-03T00:22:00;11.90;99.90
1383;DHT22;685;47.196;11.880;2022-10-03T00:24:40;12.00;99.90
1383;DHT22;685;47.196;11.880;2022-10-03T00:27:17;12.00;99.90
1383;DHT22;685;47.196;11.880;2022-10-03T00:30:10;11.90;99.90
1383;DHT22;685;47.196;11.880;2022-10-03T00:32:58;11.90;99.90
1383;DHT22;685;47.196;11.880;2022-10-03T00:35:47;11.90;99.90
1383;DHT22;685;47.196;11.880;2022-10-03T00:38:52;11.80;99.90
1383;DHT22;685;47.196;11.880;2022-10-03T00:41:50;11.80;99.90
1383;DHT22;685;47.196;11.880;2022-10-03T00:44:41;11.60;99.90
1383;DHT22;685;47.196;11.880;2022-10-03T00:47:26;11.40;99.90
1383;DHT22;685;47.196;11.880;2022-10-03T00:50:28;11.20;99.90
1383;DHT22;685;47.196;11.880;2022-10-03T00:53:06;11.30;99.90
1383;DHT22;685;47.196;11.880;2022-10-03T00:55:46;11.40;99.90
1383;DHT22;685;47.196;11.880;2022-10-03T00:58:27;11.50;99.90
1383;DHT22;685;47.196;11.880;2022-10-03T01:00:58;11.60;99.90
1383;DHT22;685;47.196;11.880;2022-10-03T01:03:37;11.70;99.90
1383;DHT22;685;47.196;11.880;2022-10-03T01:06:19;11.60;99.90
1383;DHT22;685;47.196;11.880;2022-10-03T01:09:15;11.70;99.90
1383;DHT22;685;47.196;11.880;2022-10-03T01:11:55;11.70;99.90
1383;DHT22;685;47.196;11.880;2022-10-03T01:14:49;11.70;99.90
1383;DHT22;685;47.196;11.880;2022-10-03T01:17:26;11.70;99.90
1383;DHT22;685;47.196;11.880;2022-10-03T01:20:09;11.30;99.90
1383;DHT22;685;47.196;11.880;2022-10-03T01:23:02;11.20;99.90
1383;DHT22;685;47.196;11.880;2022-10-03T01:25:38;11.50;99.90
1383;DHT22;685;47.196;11.880;2022-10-03T01:28:28;11.60;99.90
1383;DHT22;685;47.196;11.880;2022-10-03T01:31:24;11.60;99.90
1383;DHT22;685;47.196;11.880;2022-10-03T01:33:59;11.00;99.90
1383;DHT22;685;47.196;11.880;2022-10-03T01:36:31;10.80;99.90
1383;DHT22;685;47.196;11.880;2022-10-03T01:39:08;11.00;99.90
1383;DHT22;685;47.196;11.880;2022-10-03T01:41:47;11.30;99.90
1383;DHT22;685;47.196;11.880;2022-10-03T01:44:19;11.40;99.90
1383;DHT22;685;47.196;11.880;2022-10-03T01:46:51;11.30;99.90
1383;DHT22;685;47.196;11.880;2022-10-03T01:49:26;11.30;99.90
1383;DHT22;685;47.196;11.880;2022-10-03T01:51:59;11.40;99.90
1383;DHT22;685;47.196;11.880;2022-10-03T01:54:35;11.10;99.90
1383;DHT22;685;47.196;11.880;2022-10-03T01:57:11;11.30;99.90
1383;DHT22;685;47.196;11.880;2022-10-03T01:59:45;11.50;99.90
1383;DHT22;685;47.196;11.880;2022-10-03T02:02:29;11.40;99.90
1383;DHT22;685;47.196;11.880;2022-10-03T02:05:04;11.20;99.90
1383;DHT22;685;47.196;11.880;2022-10-03T02:07:40;11.10;99.90
1383;DHT22;685;47.196;11.880;2022-10-03T02:10:17;11.20;99.90
1383;DHT22;685;47.196;11.880;2022-10-03T02:12:52;11.30;99.90
1383;DHT22;685;47.196;11.880;2022-10-03T02:15:28;11.30;99.90
1383;DHT22;685;47.196;11.880;2022-10-03T02:17:57;11.40;99.90
1383;DHT22;685;47.196;11.880;2022-10-03T02:20:34;11.50;99.90
1383;DHT22;685;47.196;11.880;2022-10-03T02:23:23;11.60;99.90
1383;DHT22;685;47.196;11.880;2022-10-03T02:25:57;11.60;99.90
1383;DHT22;685;47.196;11.880;2022-10-03T02:28:58;11.60;99.90
1383;DHT22;685;47.196;11.880;2022-10-03T02:31:56;11.60;99.90
1383;DHT22;685;47.196;11.880;2022-10-03T02:34:40;11.40;99.90
1383;DHT22;685;47.196;11.880;2022-10-03T02:37:33;11.30;99.90
1383;DHT22;685;47.196;11.880;2022-10-03T02:40:24;11.40;99.90
1383;DHT22;685;47.196;11.880;2022-10-03T02:43:11;11.50;99.90
1383;DHT22;685;47.196;11.880;2022-10-03T02:49:10;11.50;99.90
1383;DHT22;685;47.196;11.880;2022-10-03T02:51:56;11.50;99.90
1383;DHT22;685;47.196;11.880;2022-10-03T02:57:54;11.50;99.90
1383;DHT22;685;47.196;11.880;2022-10-03T03:00:35;11.60;99.90
1383;DHT22;685;47.196;11.880;2022-10-03T03:03:25;11.60;99.90
1383;DHT22;685;47.196;11.880;2022-10-03T03:06:30;11.60;99.90
1383;DHT22;685;47.196;11.880;2022-10-03T03:09:21;11.70;99.90
1383;DHT22;685;47.196;11.880;2022-10-03T03:12:15;11.40;99.90
1383;DHT22;685;47.196;11.880;2022-10-03T03:18:01;11.10;99.90
1383;DHT22;685;47.196;11.880;2022-10-03T03:20:42;10.90;99.90
1383;DHT22;685;47.196;11.880;2022-10-03T03:23:37;10.70;99.90
1383;DHT22;685;47.196;11.880;2022-10-03T03:29:07;10.90;99.90
1383;DHT22;685;47.196;11.880;2022-10-03T03:31:45;11.00;99.90
1383;DHT22;685;47.196;11.880;2022-10-03T03:34:20;11.20;99.90
1383;DHT22;685;47.196;11.880;2022-10-03T03:36:53;11.30;99.90
1383;DHT22;685;47.196;11.880;2022-10-03T03:39:38;11.40;99.90
1383;DHT22;685;47.196;11.880;2022-10-03T03:42:21;11.40;99.90
1383;DHT22;685;47.196;11.880;2022-10-03T03:45:06;11.40;99.90
1383;DHT22;685;47.196;11.880;2022-10-03T03:47:47;11.50;99.90
1383;DHT22;685;47.196;11.880;2022-10-03T03:50:32;11.50;99.90
1383;DHT22;685;47.196;11.880;2022-10-03T03:53:19;11.50;99.90
1383;DHT22;685;47.196;11.880;2022-10-03T03:56:02;11.60;99.90
1383;DHT22;685;47.196;11.880;2022-10-03T03:58:35;11.60;99.90
1383;DHT22;685;47.196;11.880;2022-10-03T04:01:27;11.60;99.90
1383;DHT22;685;47.196;11.880;2022-10-03T04:04:08;11.60;99.90
1383;DHT22;685;47.196;11.880;2022-10-03T04:06:46;11.60;99.90
1383;DHT22;685;47.196;11.880;2022-10-03T04:09:30;11.60;99.90
1383;DHT22;685;47.196;11.880;2022-10-03T04:12:11;11.50;99.90
1383;DHT22;685;47.196;11.880;2022-10-03T04:14:51;11.50;99.90
1383;DHT22;685;47.196;11.880;2022-10-03T04:17:34;11.50;99.90
1383;DHT22;685;47.196;11.880;2022-10-03T04:20:31;11.50;99.90
1383;DHT22;685;47.196;11.880;2022-10-03T04:23:12;11.60;99.90
1383;DHT22;685;47.196;11.880;2022-10-03T04:26:00;11.60;99.90
1383;DHT22;685;47.196;11.880;2022-10-03T04:28:46;11.60;99.90
1383;DHT22;685;47.196;11.880;2022-10-03T04:31:37;11.60;99.90
1383;DHT22;685;47.196;11.880;2022-10-03T04:34:14;11.50;99.90
1383;DHT22;685;47.196;11.880;2022-10-03T04:37:00;11.40;99.90
1383;DHT22;685;47.196;11.880;2022-10-03T04:39:36;11.40;99.90
1383;DHT22;685;47.196;11.880;2022-10-03T04:42:13;11.40;99.90
1383;DHT22;685;47.196;11.880;2022-10-03T04:44:59;11.50;99.90
1383;DHT22;685;47.196;11.880;2022-10-03T04:47:34;11.50;99.90
1383;DHT22;685;47.196;11.880;2022-10-03T04:50:17;11.50;99.90
1383;DHT22;685;47.196;11.880;2022-10-03T04:52:50;11.50;99.90
1383;DHT22;685;47.196;11.880;2022-10-03T04:55:28;11.60;99.90
1383;DHT22;685;47.196;11.880;2022-10-03T04:58:04;11.60;99.90
1383;DHT22;685;47.196;11.880;2022-10-03T05:00:38;11.60;99.90
1383;DHT22;685;47.196;11.880;2022-10-03T05:03:16;11.60;99.90
1383;DHT22;685;47.196;11.880;2022-10-03T05:05:52;11.60;99.90
1383;DHT22;685;47.196;11.880;2022-10-03T05:08:35;11.60;99.90
1383;DHT22;685;47.196;11.880;2022-10-03T05:11:12;11.60;99.90
1383;DHT22;685;47.196;11.880;2022-10-03T05:13:56;11.70;99.90
1383;DHT22;685;47.196;11.880;2022-10-03T05:16:34;11.70;99.90
1383;DHT22;685;47.196;11.880;2022-10-03T05:19:17;11.70;99.90
1383;DHT22;685;47.196;11.880;2022-10-03T05:21:53;11.60;99.90
1383;DHT22;685;47.196;11.880;2022-10-03T05:24:26;11.60;99.90
1383;DHT22;685;47.196;11.880;2022-10-03T05:27:00;11.60;99.90
1383;DHT22;685;47.196;11.880;2022-10-03T05:29:36;11.40;99.90
1383;DHT22;685;47.196;11.880;2022-10-03T05:32:16;11.40;99.90
1383;DHT22;685;47.196;11.880;2022-10-03T05:40:50;11.40;99.90
1383;DHT22;685;47.196;11.880;2022-10-03T05:43:43;11.50;99.90
1383;DHT22;685;47.196;11.880;2022-10-03T05:46:18;11.50;99.90
1383;DHT22;685;47.196;11.880;2022-10-03T05:48:50;11.50;99.90
1383;DHT22;685;47.196;11.880;2022-10-03T05:51:42;11.50;99.90
1383;DHT22;685;47.196;11.880;2022-10-03T05:57:46;11.40;99.90
1383;DHT22;685;47.196;11.880;2022-10-03T06:00:21;11.40;99.90
1383;DHT22;685;47.196;11.880;2022-10-03T06:03:02;11.40;99.90
1383;DHT22;685;47.196;11.880;2022-10-03T06:05:43;11.50;99.90
1383;DHT22;685;47.196;11.880;2022-10-03T06:08:51;11.50;99.90
1383;DHT22;685;47.196;11.880;2022-10-03T06:11:33;11.50;99.90
1383;DHT22;685;47.196;11.880;2022-10-03T06:14:23;11.50;99.90
1383;DHT22;685;47.196;11.880;2022-10-03T06:17:07;11.60;99.90
1383;DHT22;685;47.196;11.880;2022-10-03T06:19:47;11.70;99.90
1383;DHT22;685;47.196;11.880;2022-10-03T06:22:58;11.70;99.90
1383;DHT22;685;47.196;11.880;2022-10-03T06:28:50;11.50;99.90
1383;DHT22;685;47.196;11.880;2022-10-03T06:31:53;11.60;99.90
1383;DHT22;685;47.196;11.880;2022-10-03T06:34:49;11.60;99.90
1383;DHT22;685;47.196;11.880;2022-10-03T06:37:37;11.50;99.90
1383;DHT22;685;47.196;11.880;2022-10-03T06:43:45;11.60;99.90
1383;DHT22;685;47.196;11.880;2022-10-03T06:53:15;11.40;99.90
1383;DHT22;685;47.196;11.880;2022-10-03T06:56:16;11.40;99.90
1383;DHT22;685;47.196;11.880;2022-10-03T07:02:01;11.50;99.90
1383;DHT22;685;47.196;11.880;2022-10-03T07:11:26;11.60;99.90
1383;DHT22;685;47.196;11.880;2022-10-03T07:14:31;11.50;99.90
1383;DHT22;685;47.196;11.880;2022-10-03T07:17:17;11.60;99.90
1383;DHT22;685;47.196;11.880;2022-10-03T07:19:58;11.70;99.90
1383;DHT22;685;47.196;11.880;2022-10-03T07:29:07;11.40;99.90
1383;DHT22;685;47.196;11.880;2022-10-03T07:31:49;11.60;99.90
1383;DHT22;685;47.196;11.880;2022-10-03T07:34:52;11.30;99.90
1383;DHT22;685;47.196;11.880;2022-10-03T07:37:55;11.40;99.90
1383;DHT22;685;47.196;11.880;2022-10-03T07:41:19;11.60;99.90
1383;DHT22;685;47.196;11.880;2022-10-03T07:44:32;11.50;99.90
1383;DHT22;685;47.196;11.880;2022-10-03T07:47:52;11.70;99.90
1383;DHT22;685;47.196;11.880;2022-10-03T07:53:45;11.80;99.90
1383;DHT22;685;47.196;11.880;2022-10-03T07:56:33;11.80;99.90
1383;DHT22;685;47.196;11.880;2022-10-03T07:59:35;11.80;99.90
1383;DHT22;685;47.196;11.880;2022-10-03T08:02:23;11.90;99.90
1383;DHT22;685;47.196;11.880;2022-10-03T08:05:13;12.00;99.90
1383;DHT22;685;47.196;11.880;2022-10-03T08:11:10;12.00;99.90
1383;DHT22;685;47.196;11.880;2022-10-03T08:13:59;12.10;99.90
1383;DHT22;685;47.196;11.880;2022-10-03T08:16:50;12.20;99.90
1383;DHT22;685;47.196;11.880;2022-10-03T08:19:47;12.30;99.90
1383;DHT22;685;47.196;11.880;2022-10-03T08:22:30;12.20;99.90
1383;DHT22;685;47.196;11.880;2022-10-03T08:25:16;12.20;99.90
1383;DHT22;685;47.196;11.880;2022-10-03T08:30:58;12.10;99.90
1383;DHT22;685;47.196;11.880;2022-10-03T08:33:49;12.20;99.90
1383;DHT22;685;47.196;11.880;2022-10-03T08:36:48;12.10;99.90
1383;DHT22;685;47.196;11.880;2022-10-03T08:39:30;12.20;99.90
1383;DHT22;685;47.196;11.880;2022-10-03T08:48:45;12.40;99.90
1383;DHT22;685;47.196;11.880;2022-10-03T08:51:51;12.40;99.90
1383;DHT22;685;47.196;11.880;2022-10-03T08:54:44;12.60;99.90
1383;DHT22;685;47.196;11.880;2022-10-03T08:57:43;12.60;99.90
1383;DHT22;685;47.196;11.880;2022-10-03T09:00:18;12.50;99.90
1383;DHT22;685;47.196;11.880;2022-10-03T09:03:07;12.60;99.90
1383;DHT22;685;47.196;11.880;2022-10-03T09:06:04;12.80;99.90
1383;DHT22;685;47.196;11.880;2022-10-03T09:12:13;12.80;99.90
1383;DHT22;685;47.196;11.880;2022-10-03T09:15:04;12.80;99.90
1383;DHT22;685;47.196;11.880;2022-10-03T09:27:11;13.00;99.90
1383;DHT22;685;47.196;11.880;2022-10-03T09:33:02;13.10;99.90
1383;DHT22;685;47.196;11.880;2022-10-03T09:35:52;13.10;99.90
1383;DHT22;685;47.196;11.880;2022-10-03T09:38:46;13.20;99.90
1383;DHT22;685;47.196;11.880;2022-10-03T09:41:32;13.20;99.90
1383;DHT22;685;47.196;11.880;2022-10-03T09:44:28;13.30;99.90
1383;DHT22;685;47.196;11.880;2022-10-03T09:50:41;13.70;99.90
1383;DHT22;685;47.196;11.880;2022-10-03T09:56:37;13.50;99.90
1383;DHT22;685;47.196;11.880;2022-10-03T09:59:24;13.50;99.90
1383;DHT22;685;47.196;11.880;2022-10-03T10:02:04;13.60;99.90
1383;DHT22;685;47.196;11.880;2022-10-03T10:04:57;13.80;99.90
1383;DHT22;685;47.196;11.880;2022-10-03T10:10:50;13.90;99.90
1383;DHT22;685;47.196;11.880;2022-10-03T10:19:52;14.00;99.90
1383;DHT22;685;47.196;11.880;2022-10-03T10:22:54;14.20;99.90
1383;DHT22;685;47.196;11.880;2022-10-03T10:25:54;14.20;99.90
1383;DHT22;685;47.196;11.880;2022-10-03T10:29:00;14.20;99.90
1383;DHT22;685;47.196;11.880;2022-10-03T10:38:23;14.40;99.90
1383;DHT22;685;47.196;11.880;2022-10-03T10:47:23;14.50;99.90
1383;DHT22;685;47.196;11.880;2022-10-03T10:50:26;14.60;99.90
1383;DHT22;685;47.196;11.880;2022-10-03T10:56:48;14.70;99.90
1383;DHT22;685;47.196;11.880;2022-10-03T11:00:05;14.80;99.90
1383;DHT22;685;47.196;11.880;2022-10-03T11:03:25;14.90;99.90
1383;DHT22;685;47.196;11.880;2022-10-03T11:09:40;14.90;99.90
1383;DHT22;685;47.196;11.880;2022-10-03T11:12:36;15.00;99.90
1383;DHT22;685;47.196;11.880;2022-10-03T11:19:03;15.00;99.90
1383;DHT22;685;47.196;11.880;2022-10-03T11:28:39;15.20;99.90
1383;DHT22;685;47.196;11.880;2022-10-03T11:31:41;15.20;99.90
1383;DHT22;685;47.196;11.880;2022-10-03T11:37:39;15.30;99.90
1383;DHT22;685;47.196;11.880;2022-10-03T11:40:22;15.50;99.90
1383;DHT22;685;47.196;11.880;2022-10-03T11:42:56;15.70;99.90
1383;DHT22;685;47.196;11.880;2022-10-03T11:45:28;15.60;99.90
1383;DHT22;685;47.196;11.880;2022-10-03T11:48:13;15.40;99.90
1383;DHT22;685;47.196;11.880;2022-10-03T11:50:50;15.40;99.90
1383;DHT22;685;47.196;11.880;2022-10-03T11:53:39;15.40;99.90
1383;DHT22;685;47.196;11.880;2022-10-03T11:56:18;15.40;99.90
1383;DHT22;685;47.196;11.880;2022-10-03T11:58:56;15.40;99.90
1383;DHT22;685;47.196;11.880;2022-10-03T12:01:38;15.50;99.90
1383;DHT22;685;47.196;11.880;2022-10-03T12:04:10;15.50;99.90
1383;DHT22;685;47.196;11.880;2022-10-03T12:06:54;15.50;99.90
1383;DHT22;685;47.196;11.880;2022-10-03T12:09:46;15.50;99.90
1383;DHT22;685;47.196;11.880;2022-10-03T12:12:28;15.40;99.90
1383;DHT22;685;47.196;11.880;2022-10-03T12:15:02;15.60;99.90
1383;DHT22;685;47.196;11.880;2022-10-03T12:17:33;16.00;99.90
1383;DHT22;685;47.196;11.880;2022-10-03T12:20:04;16.30;99.90
1383;DHT22;685;47.196;11.880;2022-10-03T12:22:44;16.30;99.90
1383;DHT22;685;47.196;11.880;2022-10-03T12:25:19;16.50;99.90
1383;DHT22;685;47.196;11.880;2022-10-03T12:27:57;16.50;99.90
1383;DHT22;685;47.196;11.880;2022-10-03T12:30:29;16.50;99.90
1383;DHT22;685;47.196;11.880;2022-10-03T12:33:12;16.90;99.90
1383;DHT22;685;47.196;11.880;2022-10-03T12:35:45;16.80;99.90
1383;DHT22;685;47.196;11.880;2022-10-03T12:38:28;16.30;99.90
1383;DHT22;685;47.196;11.880;2022-10-03T12:41:07;16.30;99.90
1383;DHT22;685;47.196;11.880;2022-10-03T12:43:51;16.70;99.90
1383;DHT22;685;47.196;11.880;2022-10-03T12:46:28;16.20;99.90
1383;DHT22;685;47.196;11.880;2022-10-03T12:49:02;16.10;99.90
1383;DHT22;685;47.196;11.880;2022-10-03T12:51:40;16.00;99.90
1383;DHT22;685;47.196;11.880;2022-10-03T12:54:26;15.90;99.90
1383;DHT22;685;47.196;11.880;2022-10-03T12:57:16;15.90;99.90
1383;DHT22;685;47.196;11.880;2022-10-03T12:59:53;15.80;99.90
1383;DHT22;685;47.196;11.880;2022-10-03T13:02:29;15.90;99.90
1383;DHT22;685;47.196;11.880;2022-10-03T13:05:32;16.00;99.90
1383;DHT22;685;47.196;11.880;2022-10-03T13:08:05;16.30;99.90
1383;DHT22;685;47.196;11.880;2022-10-03T13:10:38;16.40;99.90
1383;DHT22;685;47.196;11.880;2022-10-03T13:13:21;16.40;99.90
1383;DHT22;685;47.196;11.880;2022-10-03T13:16:16;16.60;99.90
1383;DHT22;685;47.196;11.880;2022-10-03T13:18:52;16.40;99.90
1383;DHT22;685;47.196;11.880;2022-10-03T13:21:30;16.60;99.90
1383;DHT22;685;47.196;11.880;2022-10-03T13:24:03;16.60;99.90
1383;DHT22;685;47.196;11.880;2022-10-03T13:26:46;16.50;99.90
1383;DHT22;685;47.196;11.880;2022-10-03T13:29:25;16.40;99.90
1383;DHT22;685;47.196;11.880;2022-10-03T13:32:08;16.60;99.90
1383;DHT22;685;47.196;11.880;2022-10-03T13:34:51;16.60;99.90
1383;DHT22;685;47.196;11.880;2022-10-03T13:37:27;16.20;99.90
1383;DHT22;685;47.196;11.880;2022-10-03T13:40:03;16.10;99.90
1383;DHT22;685;47.196;11.880;2022-10-03T13:42:36;16.30;99.90
1383;DHT22;685;47.196;11.880;2022-10-03T13:45:11;16.30;99.90
1383;DHT22;685;47.196;11.880;2022-10-03T13:47:43;16.60;99.90
1383;DHT22;685;47.196;11.880;2022-10-03T13:50:15;16.70;99.90
1383;DHT22;685;47.196;11.880;2022-10-03T13:52:47;16.70;99.90
1383;DHT22;685;47.196;11.880;2022-10-03T13:55:34;16.90;99.90
1383;DHT22;685;47.196;11.880;2022-10-03T13:58:18;16.40;99.90
1383;DHT22;685;47.196;11.880;2022-10-03T14:01:01;16.40;99.90
1383;DHT22;685;47.196;11.880;2022-10-03T14:03:38;16.40;99.90
1383;DHT22;685;47.196;11.880;2022-10-03T14:06:15;16.60;99.90
1383;DHT22;685;47.196;11.880;2022-10-03T14:09:24;16.30;99.90
1383;DHT22;685;47.196;11.880;2022-10-03T14:12:01;16.50;99.90
1383;DHT22;685;47.196;11.880;2022-10-03T14:14:49;16.20;99.90
1383;DHT22;685;47.196;11.880;2022-10-03T14:17:23;16.10;99.90
1383;DHT22;685;47.196;11.880;2022-10-03T14:20:04;16.10;99.90
1383;DHT22;685;47.196;11.880;2022-10-03T14:22:53;16.00;99.90
1383;DHT22;685;47.196;11.880;2022-10-03T14:25:25;16.00;99.90
1383;DHT22;685;47.196;11.880;2022-10-03T14:27:57;15.80;99.90
1383;DHT22;685;47.196;11.880;2022-10-03T14:30:35;15.80;99.90
1383;DHT22;685;47.196;11.880;2022-10-03T14:33:18;15.80;99.90
1383;DHT22;685;47.196;11.880;2022-10-03T14:35:58;15.80;99.90
1383;DHT22;685;47.196;11.880;2022-10-03T14:38:59;15.70;99.90
1383;DHT22;685;47.196;11.880;2022-10-03T14:41:43;15.70;99.90
1383;DHT22;685;47.196;11.880;2022-10-03T14:44:14;15.70;99.90
1383;DHT22;685;47.196;11.880;2022-10-03T14:46:48;15.60;99.90
1383;DHT22;685;47.196;11.880;2022-10-03T14:49:19;15.60;99.90
1383;DHT22;685;47.196;11.880;2022-10-03T14:51:51;15.50;99.90
1383;DHT22;685;47.196;11.880;2022-10-03T14:54:24;15.50;99.90
1383;DHT22;685;47.196;11.880;2022-10-03T14:56:53;15.50;99.90
1383;DHT22;685;47.196;11.880;2022-10-03T14:59:25;15.50;99.90
1383;DHT22;685;47.196;11.880;2022-10-03T15:01:56;15.50;99.90
1383;DHT22;685;47.196;11.880;2022-10-03T15:04:28;15.70;99.90
1383;DHT22;685;47.196;11.880;2022-10-03T15:06:56;15.50;99.90
1383;DHT22;685;47.196;11.880;2022-10-03T15:09:31;15.50;99.90
1383;DHT22;685;47.196;11.880;2022-10-03T15:12:03;15.40;99.90
1383;DHT22;685;47.196;11.880;2022-10-03T15:14:34;15.30;99.90
1383;DHT22;685;47.196;11.880;2022-10-03T15:17:06;15.10;99.90
1383;DHT22;685;47.196;11.880;2022-10-03T15:19:44;15.00;99.90
1383;DHT22;685;47.196;11.880;2022-10-03T15:22:24;15.00;99.90
1383;DHT22;685;47.196;11.880;2022-10-03T15:24:55;14.90;99.90
1383;DHT22;685;47.196;11.880;2022-10-03T15:27:25;14.80;99.90
1383;DHT22;685;47.196;11.880;2022-10-03T15:29:56;14.80;99.90
1383;DHT22;685;47.196;11.880;2022-10-03T15:32:27;14.80;99.90
1383;DHT22;685;47.196;11.880;2022-10-03T15:34:57;14.50;99.90
1383;DHT22;685;47.196;11.880;2022-10-03T15:37:28;14.40;99.90
1383;DHT22;685;47.196;11.880;2022-10-03T15:40:04;14.50;99.90
1383;DHT22;685;47.196;11.880;2022-10-03T15:42:44;14.50;99.90
1383;DHT22;685;47.196;11.880;2022-10-03T15:45:19;14.40;99.90
1383;DHT22;685;47.196;11.880;2022-10-03T15:47:48;14.40;99.90
1383;DHT22;685;47.196;11.880;2022-10-03T15:50:21;14.40;99.90
1383;DHT22;685;47.196;11.880;2022-10-03T15:52:51;14.50;99.90
1383;DHT22;685;47.196;11.880;2022-10-03T15:55:22;14.30;99.90
1383;DHT22;685;47.196;11.880;2022-10-03T15:57:56;14.30;99.90
1383;DHT22;685;47.196;11.880;2022-10-03T16:00:27;14.30;99.90
1383;DHT22;685;47.196;11.880;2022-10-03T16:03:07;14.30;99.90
1383;DHT22;685;47.196;11.880;2022-10-03T16:05:43;14.10;99.90
1383;DHT22;685;47.196;11.880;2022-10-03T16:08:16;14.10;99.90
1383;DHT22;685;47.196;11.880;2022-10-03T16:10:56;14.20;99.90
1383;DHT22;685;47.196;11.880;2022-10-03T16:13:30;14.20;99.90
1383;DHT22;685;47.196;11.880;2022-10-03T16:16:10;14.00;99.90
1383;DHT22;685;47.196;11.880;2022-10-03T16:18:51;13.90;99.90
1383;DHT22;685;47.196;11.880;2022-10-03T16:21:29;13.50;99.90
1383;DHT22;685;47.196;11.880;2022-10-03T16:23:58;13.10;99.90
1383;DHT22;685;47.196;11.880;2022-10-03T16:26:28;13.30;99.90
1383;DHT22;685;47.196;11.880;2022-10-03T16:29:02;13.30;99.90
1383;DHT22;685;47.196;11.880;2022-10-03T16:31:39;13.50;99.90
1383;DHT22;685;47.196;11.880;2022-10-03T16:34:12;13.40;99.90
1383;DHT22;685;47.196;11.880;2022-10-03T16:36:41;13.30;99.90
1383;DHT22;685;47.196;11.880;2022-10-03T16:39:17;13.20;99.90
1383;DHT22;685;47.196;11.880;2022-10-03T16:41:45;12.90;99.90
1383;DHT22;685;47.196;11.880;2022-10-03T16:44:19;12.90;99.90
1383;DHT22;685;47.196;11.880;2022-10-03T16:46:50;13.00;99.90
1383;DHT22;685;47.196;11.880;2022-10-03T16:49:38;13.00;99.90
1383;DHT22;685;47.196;11.880;2022-10-03T16:52:29;13.00;99.90
1383;DHT22;685;47.196;11.880;2022-10-03T16:55:02;13.00;99.90
1383;DHT22;685;47.196;11.880;2022-10-03T16:57:36;13.00;99.90
1383;DHT22;685;47.196;11.880;2022-10-03T17:00:15;12.80;99.90
1383;DHT22;685;47.196;11.880;2022-10-03T17:02:44;12.60;99.90
1383;DHT22;685;47.196;11.880;2022-10-03T17:05:13;12.50;99.90
1383;DHT22;685;47.196;11.880;2022-10-03T17:07:42;12.40;99.90
1383;DHT22;685;47.196;11.880;2022-10-03T17:10:32;11.70;99.90
1383;DHT22;685;47.196;11.880;2022-10-03T17:13:05;11.90;99.90
1383;DHT22;685;47.196;11.880;2022-10-03T17:15:44;12.10;99.90
1383;DHT22;685;47.196;11.880;2022-10-03T17:18:22;12.20;99.90
1383;DHT22;685;47.196;11.880;2022-10-03T17:20:54;12.30;99.90
1383;DHT22;685;47.196;11.880;2022-10-03T17:23:27;11.90;99.90
1383;DHT22;685;47.196;11.880;2022-10-03T17:26:01;11.70;99.90
1383;DHT22;685;47.196;11.880;2022-10-03T17:28:38;12.10;99.90
1383;DHT22;685;47.196;11.880;2022-10-03T17:31:24;12.30;99.90
1383;DHT22;685;47.196;11.880;2022-10-03T17:33:56;12.40;99.90
1383;DHT22;685;47.196;11.880;2022-10-03T17:37:04;12.40;99.90
1383;DHT22;685;47.196;11.880;2022-10-03T17:39:38;12.30;99.90
1383;DHT22;685;47.196;11.880;2022-10-03T17:42:17;12.30;99.90
1383;DHT22;685;47.196;11.880;2022-10-03T17:44:55;12.30;99.90
1383;DHT22;685;47.196;11.880;2022-10-03T17:47:31;12.30;99.90
1383;DHT22;685;47.196;11.880;2022-10-03T17:50:04;12.20;99.90
1383;DHT22;685;47.196;11.880;2022-10-03T17:52:38;11.90;99.90
1383;DHT22;685;47.196;11.880;2022-10-03T17:55:10;11.90;99.90
1383;DHT22;685;47.196;11.880;2022-10-03T17:57:45;11.90;99.90
1383;DHT22;685;47.196;11.880;2022-10-03T18:00:17;11.80;99.90
1383;DHT22;685;47.196;11.880;2022-10-03T18:02:51;11.90;99.90
1383;DHT22;685;47.196;11.880;2022-10-03T18:05:24;11.90;99.90
1383;DHT22;685;47.196;11.880;2022-10-03T18:07:54;11.60;99.90
1383;DHT22;685;47.196;11.880;2022-10-03T18:10:25;11.40;99.90
1383;DHT22;685;47.196;11.880;2022-10-03T18:12:55;11.30;99.90
1383;DHT22;685;47.196;11.880;2022-10-03T18:18:44;11.40;99.90
1383;DHT22;685;47.196;11.880;2022-10-03T18:21:17;11.50;99.90
1383;DHT22;685;47.196;11.880;2022-10-03T18:24:05;11.00;99.90
1383;DHT22;685;47.196;11.880;2022-10-03T18:26:40;11.10;99.90
1383;DHT22;685;47.196;11.880;2022-10-03T18:29:15;11.20;99.90
1383;DHT22;685;47.196;11.880;2022-10-03T18:31:50;10.80;99.90
1383;DHT22;685;47.196;11.880;2022-10-03T18:34:25;11.20;99.90
1383;DHT22;685;47.196;11.880;2022-10-03T18:36:55;11.20;99.90
1383;DHT22;685;47.196;11.880;2022-10-03T18:39:25;11.20;99.90
1383;DHT22;685;47.196;11.880;2022-10-03T18:41:55;11.40;99.90
1383;DHT22;685;47.196;11.880;2022-10-03T18:44:25;11.10;99.90
1383;DHT22;685;47.196;11.880;2022-10-03T18:47:06;10.90;99.90
1383;DHT22;685;47.196;11.880;2022-10-03T18:49:38;10.70;99.90
1383;DHT22;685;47.196;11.880;2022-10-03T18:52:12;10.90;99.90
1383;DHT22;685;47.196;11.880;2022-10-03T18:54:51;11.00;99.90
1383;DHT22;685;47.196;11.880;2022-10-03T18:57:24;11.00;99.90
1383;DHT22;685;47.196;11.880;2022-10-03T18:59:55;11.00;99.90
1383;DHT22;685;47.196;11.880;2022-10-03T19:02:31;10.90;99.90
1383;DHT22;685;47.196;11.880;2022-10-03T19:05:06;11.00;99.90
1383;DHT22;685;47.196;11.880;2022-10-03T19:07:42;10.80;99.90
1383;DHT22;685;47.196;11.880;2022-10-03T19:10:28;10.80;99.90
1383;DHT22;685;47.196;11.880;2022-10-03T19:13:02;10.90;99.90
1383;DHT22;685;47.196;11.880;2022-10-03T19:15:44;10.80;99.90
1383;DHT22;685;47.196;11.880;2022-10-03T19:18:20;10.90;99.90
1383;DHT22;685;47.196;11.880;2022-10-03T19:20:49;10.80;99.90
1383;DHT22;685;47.196;11.880;2022-10-03T19:23:21;10.80;99.90
1383;DHT22;685;47.196;11.880;2022-10-03T19:25:54;10.90;99.90
1383;DHT22;685;47.196;11.880;2022-10-03T19:28:27;10.20;99.90
1383;DHT22;685;47.196;11.880;2022-10-03T19:30:58;10.40;99.90
1383;DHT22;685;47.196;11.880;2022-10-03T19:33:29;10.70;99.90
1383;DHT22;685;47.196;11.880;2022-10-03T19:36:00;10.80;99.90
1383;DHT22;685;47.196;11.880;2022-10-03T19:38:32;10.80;99.90
1383;DHT22;685;47.196;11.880;2022-10-03T19:41:11;10.50;99.90
1383;DHT22;685;47.196;11.880;2022-10-03T19:43:41;10.60;99.90
1383;DHT22;685;47.196;11.880;2022-10-03T19:46:24;10.70;99.90
1383;DHT22;685;47.196;11.880;2022-10-03T19:51:50;10.70;99.90
1383;DHT22;685;47.196;11.880;2022-10-03T19:54:29;10.70;99.90